Time;durP1;ratioP1;P1;durP2;ratioP2;P2;SDS_P1;SDS_P2;PMS_P1;PMS_P2;Temp;Humidity;BMP_temperature;BMP_pressure;BME280_temperature;BME280_humidity;BME280_pressure;Samples;Min_cycle;Max_cycle;Signal;HPM_P1;HPM_P2
2023/05/16 00:00:24;;;;;;;33.33;3.80;;;;;;;8.66;100.00;101979.28;5230830;28;20024;-72
2023/05/16 00:02:54;;;;;;;13.27;3.50;;;;;;;8.59;100.00;101975.41;5232988;28;20025;-73
2023/05/16 00:05:25;;;;;;;26.58;3.55;;;;;;;8.54;100.00;101978.47;5233582;28;20027;-72
2023/05/16 00:07:56;;;;;;;22.50;3.38;;;;;;;8.49;100.00;101978.84;5232371;28;20700;-73
2023/05/16 00:10:26;;;;;;;19.63;3.55;;;;;;;8.46;100.00;101978.22;5238381;28;20029;-72
2023/05/16 00:12:57;;;;;;;19.40;3.28;;;;;;;8.39;100.00;101980.56;5225833;28;20043;-72
2023/05/16 00:15:28;;;;;;;28.63;4.00;;;;;;;8.39;100.00;101985.06;5226656;28;20025;-72
2023/05/16 00:17:59;;;;;;;22.08;3.13;;;;;;;8.39;100.00;101985.06;5228074;28;20481;-72
2023/05/16 00:20:30;;;;;;;23.38;2.90;;;;;;;8.38;100.00;101980.66;5236752;28;20028;-72
2023/05/16 00:23:00;;;;;;;23.58;3.00;;;;;;;8.39;100.00;101972.53;5231773;28;20025;-72
2023/05/16 00:25:31;;;;;;;22.73;3.05;;;;;;;8.38;100.00;101970.81;5245416;28;20382;-72
2023/05/16 00:28:02;;;;;;;19.17;3.28;;;;;;;8.28;100.00;101972.50;5238773;28;20063;-72
2023/05/16 00:30:32;;;;;;;20.88;3.25;;;;;;;8.28;100.00;101972.50;5238282;28;20575;-72
2023/05/16 00:33:03;;;;;;;22.80;3.05;;;;;;;8.26;100.00;101971.78;5225147;28;20025;-72
2023/05/16 00:35:33;;;;;;;33.53;4.28;;;;;;;8.23;100.00;101977.38;5224395;28;20056;-73
2023/05/16 00:38:04;;;;;;;20.88;3.28;;;;;;;8.24;100.00;101979.94;5225642;28;20056;-72
2023/05/16 00:40:34;;;;;;;23.02;3.33;;;;;;;8.22;100.00;101964.97;5234509;28;20098;-72
2023/05/16 00:43:05;;;;;;;23.05;3.63;;;;;;;8.20;100.00;101978.47;5235475;28;20031;-71
2023/05/16 00:45:35;;;;;;;25.60;2.80;;;;;;;8.18;100.00;101975.09;5242247;28;20025;-71
2023/05/16 00:48:08;;;;;;;23.92;3.50;;;;;;;8.11;100.00;101973.03;5244844;28;20021;-71
2023/05/16 00:50:39;;;;;;;14.85;2.75;;;;;;;8.14;100.00;101980.81;5239896;28;20108;-72
2023/05/16 00:53:10;;;;;;;15.20;3.08;;;;;;;8.07;100.00;101977.75;5232670;28;20025;-72
2023/05/16 00:55:40;;;;;;;23.27;3.03;;;;;;;8.06;100.00;101976.06;5219474;28;20071;-71
2023/05/16 00:58:12;;;;;;;12.90;3.53;;;;;;;8.04;100.00;101970.00;5224441;28;20111;-72
2023/05/16 01:00:46;;;;;;;17.70;3.70;;;;;;;8.09;100.00;101983.84;5224406;28;20032;-72
2023/05/16 01:03:17;;;;;;;29.70;3.45;;;;;;;8.02;100.00;101985.28;5240795;28;20029;-72
2023/05/16 01:05:48;;;;;;;31.58;3.75;;;;;;;7.94;100.00;101983.25;5244960;28;20027;-72
2023/05/16 01:08:20;;;;;;;18.30;3.15;;;;;;;7.96;100.00;101986.63;5245156;28;20054;-72
2023/05/16 01:11:11;;;;;;;19.77;3.03;;;;;;;7.93;100.00;101984.22;5233684;28;20025;-72
2023/05/16 01:13:51;;;;;;;19.52;3.75;;;;;;;7.89;100.00;101990.75;5233130;28;20024;-72
2023/05/16 01:16:43;;;;;;;21.27;3.17;;;;;;;7.85;100.00;101988.44;5227661;28;20398;-72
2023/05/16 01:19:32;;;;;;;20.38;3.00;;;;;;;7.83;100.00;101983.25;5225257;28;20593;-72
2023/05/16 01:22:16;;;;;;;17.33;3.13;;;;;;;7.83;100.00;101985.03;5230372;28;20021;-72
2023/05/16 01:25:13;;;;;;;18.38;2.97;;;;;;;7.77;100.00;101991.72;5237679;28;20047;-72
2023/05/16 01:27:45;;;;;;;22.92;3.60;;;;;;;7.78;100.00;101986.28;5241805;28;20021;-72
2023/05/16 01:30:18;;;;;;;21.83;2.83;;;;;;;7.76;100.00;101990.03;5245113;28;20231;-72
2023/05/16 01:32:48;;;;;;;15.20;2.58;;;;;;;7.73;100.00;101990.25;5244740;28;20016;-73
2023/05/16 01:35:19;;;;;;;18.70;2.90;;;;;;;7.72;100.00;101985.88;5230874;28;20037;-72
2023/05/16 01:38:10;;;;;;;23.85;3.75;;;;;;;7.71;100.00;101984.19;5223617;28;20501;-73
2023/05/16 01:41:04;;;;;;;25.13;3.00;;;;;;;7.61;100.00;101986.72;5234689;28;20493;-72
2023/05/16 01:43:42;;;;;;;14.40;2.88;;;;;;;7.58;100.00;101988.78;5231025;28;20031;-72
2023/05/16 01:46:19;;;;;;;22.02;3.08;;;;;;;7.55;100.00;101997.03;5244271;28;20549;-72
2023/05/16 01:48:56;;;;;;;37.35;3.40;;;;;;;7.55;100.00;101992.53;5244022;28;20032;-72
2023/05/16 01:51:32;;;;;;;30.88;3.58;;;;;;;7.55;100.00;102002.38;5231451;28;20031;-73
2023/05/16 01:54:08;;;;;;;13.50;2.58;;;;;;;7.53;100.00;102003.34;5228428;28;20083;-72
2023/05/16 01:56:46;;;;;;;19.10;3.10;;;;;;;7.48;100.00;102008.19;5238684;28;20052;-72
2023/05/16 01:59:20;;;;;;;16.88;2.85;;;;;;;7.43;100.00;102007.69;5244466;28;20078;-72
2023/05/16 02:02:06;;;;;;;25.65;2.85;;;;;;;7.41;100.00;102004.28;5244035;28;20055;-71
2023/05/16 02:04:37;;;;;;;25.25;3.10;;;;;;;7.42;100.00;102011.31;5244330;28;20027;-72
2023/05/16 02:07:08;;;;;;;17.25;2.80;;;;;;;7.42;100.00;102008.66;5235210;28;20029;-73
2023/05/16 02:09:45;;;;;;;21.88;4.22;;;;;;;7.41;100.00;102009.63;5222883;28;20024;-72
2023/05/16 02:12:15;;;;;;;15.43;2.80;;;;;;;7.37;100.00;102010.81;5243904;28;20040;-72
2023/05/16 02:14:46;;;;;;;28.25;3.28;;;;;;;7.37;100.00;102009.97;5244181;28;20509;-72
2023/05/16 02:17:17;;;;;;;28.38;4.00;;;;;;;7.35;100.00;102007.41;5243847;28;20034;-72
2023/05/16 02:19:48;;;;;;;22.33;3.22;;;;;;;7.36;100.00;102009.13;5243160;28;20012;-72
2023/05/16 02:22:18;;;;;;;15.13;3.60;;;;;;;7.33;100.00;102003.16;5230562;28;20020;-72
2023/05/16 02:24:49;;;;;;;29.90;3.42;;;;;;;7.22;100.00;102003.97;5230064;28;20036;-72
2023/05/16 02:27:19;;;;;;;14.23;2.85;;;;;;;7.23;100.00;102008.38;5242493;28;20020;-71
2023/05/16 02:29:50;;;;;;;22.15;3.70;;;;;;;7.25;100.00;102009.09;5231483;28;20248;-73
2023/05/16 02:32:20;;;;;;;28.65;3.60;;;;;;;7.25;100.00;102014.44;5243384;28;20115;-72
2023/05/16 02:34:51;;;;;;;19.58;3.03;;;;;;;7.32;100.00;102010.31;5243897;28;20056;-72
2023/05/16 02:37:22;;;;;;;16.40;2.83;;;;;;;7.32;100.00;102004.97;5226567;28;20037;-72
2023/05/16 02:39:52;;;;;;;17.92;3.28;;;;;;;7.35;100.00;102017.25;5227951;28;20020;-72
2023/05/16 02:42:26;;;;;;;25.83;3.17;;;;;;;7.33;100.00;102019.16;5243961;28;20527;-72
2023/05/16 02:44:57;;;;;;;21.42;3.15;;;;;;;7.30;100.00;102020.28;5231175;28;20021;-72
2023/05/16 02:47:27;;;;;;;19.17;3.50;;;;;;;7.31;100.00;102024.63;5242111;28;20047;-72
2023/05/16 02:49:58;;;;;;;19.83;3.50;;;;;;;7.31;100.00;102029.97;5243392;28;20478;-72
2023/05/16 02:52:28;;;;;;;37.42;4.22;;;;;;;7.25;100.00;102035.78;5243828;28;20027;-72
2023/05/16 02:54:59;;;;;;;33.38;3.00;;;;;;;7.22;100.00;102028.00;5225146;28;20025;-72
2023/05/16 02:57:29;;;;;;;19.30;2.80;;;;;;;7.18;100.00;102031.88;5234122;28;20036;-71
2023/05/16 03:00:00;;;;;;;15.05;3.15;;;;;;;7.16;100.00;102034.66;5226123;28;20073;-72
2023/05/16 03:02:30;;;;;;;19.05;3.22;;;;;;;7.15;100.00;102040.97;5243576;28;20027;-71
2023/05/16 03:05:01;;;;;;;18.83;4.15;;;;;;;7.18;100.00;102045.22;5243593;28;20032;-72
2023/05/16 03:07:32;;;;;;;20.02;3.83;;;;;;;7.17;100.00;102051.50;5243245;28;20385;-72
2023/05/16 03:10:03;;;;;;;14.60;2.60;;;;;;;7.16;100.00;102047.16;5233423;28;20031;-72
2023/05/16 03:12:34;;;;;;;25.55;4.25;;;;;;;7.16;100.00;102052.47;5247345;28;20028;-72
2023/05/16 03:15:05;;;;;;;23.15;3.80;;;;;;;7.16;100.00;102056.00;5247492;28;20024;-72
2023/05/16 03:17:35;;;;;;;25.60;4.15;;;;;;;7.12;100.00;102059.00;5233555;28;20564;-72
2023/05/16 03:20:07;;;;;;;21.92;3.20;;;;;;;7.06;100.00;102056.81;5242747;28;20318;-72
2023/05/16 03:22:39;;;;;;;18.77;3.70;;;;;;;7.04;100.00;102051.59;5247240;28;20082;-72
2023/05/16 03:25:09;;;;;;;19.33;3.47;;;;;;;7.08;100.00;102052.19;5237275;28;20108;-71
2023/05/16 03:27:40;;;;;;;12.35;2.80;;;;;;;7.07;100.00;102051.34;5226050;28;20027;-71
2023/05/16 03:30:11;;;;;;;14.60;3.05;;;;;;;7.10;100.00;102055.63;5226319;28;20441;-71
2023/05/16 03:32:44;;;;;;;17.45;2.50;;;;;;;7.07;100.00;102055.84;5231273;28;20572;-71
2023/05/16 03:35:15;;;;;;;19.35;3.05;;;;;;;7.05;100.00;102055.97;5234871;28;20433;-71
2023/05/16 03:37:45;;;;;;;26.42;3.60;;;;;;;7.01;100.00;102055.31;5239338;28;20020;-71
2023/05/16 03:40:16;;;;;;;22.88;3.40;;;;;;;6.97;100.00;102059.19;5234296;28;20111;-71
2023/05/16 03:42:47;;;;;;;25.05;3.42;;;;;;;6.96;100.00;102061.97;5226329;28;20032;-71
2023/05/16 03:45:18;;;;;;;22.10;4.30;;;;;;;6.95;100.00;102060.28;5227088;28;20543;-70
2023/05/16 03:47:49;;;;;;;21.65;3.50;;;;;;;6.89;100.00;102060.72;5238064;28;20025;-70
2023/05/16 03:50:20;;;;;;;27.20;3.60;;;;;;;6.83;100.00;102064.69;5221646;28;20432;-71
2023/05/16 03:52:53;;;;;;;19.20;3.00;;;;;;;6.77;100.00;102075.78;5228881;28;20021;-71
2023/05/16 03:55:23;;;;;;;28.98;3.72;;;;;;;6.74;100.00;102081.38;5246558;28;20028;-70
2023/05/16 03:57:54;;;;;;;18.55;3.28;;;;;;;6.67;100.00;102080.94;5234547;28;20079;-71
2023/05/16 04:00:25;;;;;;;20.73;3.67;;;;;;;6.62;100.00;102080.41;5225816;28;20021;-71
2023/05/16 04:02:56;;;;;;;24.60;3.67;;;;;;;6.61;100.00;102080.53;5225884;28;20025;-71
2023/05/16 04:05:27;;;;;;;25.73;3.47;;;;;;;6.59;100.00;102085.16;5245309;28;20026;-71
2023/05/16 04:07:57;;;;;;;18.50;3.40;;;;;;;6.58;100.00;102089.63;5232456;28;20382;-72
2023/05/16 04:10:28;;;;;;;27.83;4.63;;;;;;;6.59;100.00;102090.47;5238800;28;20028;-71
2023/05/16 04:12:58;;;;;;;16.63;2.95;;;;;;;6.60;100.00;102089.50;5240460;28;20535;-71
2023/05/16 04:15:29;;;;;;;24.45;3.35;;;;;;;6.61;100.00;102092.06;5246299;28;20024;-71
2023/05/16 04:17:59;;;;;;;18.70;3.47;;;;;;;6.63;100.00;102097.31;5246167;28;20025;-71
2023/05/16 04:20:30;;;;;;;25.67;4.38;;;;;;;6.59;100.00;102103.81;5238060;28;20054;-71
2023/05/16 04:23:00;;;;;;;16.88;4.03;;;;;;;6.58;100.00;102104.78;5245939;28;20392;-71
2023/05/16 04:25:31;;;;;;;18.10;3.70;;;;;;;6.58;100.00;102105.63;5245963;28;20393;-71
2023/05/16 04:28:02;;;;;;;25.67;4.82;;;;;;;6.60;100.00;102117.03;5232247;28;20017;-71
2023/05/16 04:30:32;;;;;;;21.88;3.88;;;;;;;6.67;100.00;102109.44;5245861;28;20098;-70
2023/05/16 04:33:03;;;;;;;28.98;4.22;;;;;;;6.76;100.00;102108.78;5232986;28;20060;-71
2023/05/16 04:35:34;;;;;;;19.15;3.28;;;;;;;6.80;100.00;102114.75;5245593;28;20078;-71
2023/05/16 04:38:05;;;;;;;14.82;3.28;;;;;;;6.83;100.00;102115.38;5236622;28;20407;-71
2023/05/16 04:40:35;;;;;;;25.25;3.85;;;;;;;6.86;100.00;102112.47;5238310;28;20021;-70
2023/05/16 04:43:07;;;;;;;14.10;4.05;;;;;;;6.91;100.00;102115.66;5225330;28;20096;-71
2023/05/16 04:45:37;;;;;;;15.02;3.10;;;;;;;6.95;100.00;102121.63;5242507;28;20504;-70
2023/05/16 04:48:08;;;;;;;22.10;3.30;;;;;;;7.00;100.00;102117.66;5245152;28;20028;-71
2023/05/16 04:50:38;;;;;;;16.20;3.67;;;;;;;7.07;100.00;102119.88;5225810;28;20309;-70
2023/05/16 04:53:09;;;;;;;19.08;4.00;;;;;;;7.14;100.00;102116.66;5233103;28;20351;-70
2023/05/16 04:55:39;;;;;;;20.98;3.45;;;;;;;7.19;100.00;102113.66;5237964;28;20025;-70
2023/05/16 04:58:10;;;;;;;16.42;3.08;;;;;;;7.24;100.00;102127.50;5239094;28;20022;-70
2023/05/16 05:00:41;;;;;;;27.55;4.85;;;;;;;7.29;100.00;102122.69;5245692;28;20119;-70
2023/05/16 05:03:11;;;;;;;18.38;3.10;;;;;;;7.34;100.00;102127.69;5245329;28;20097;-71
2023/05/16 05:05:42;;;;;;;14.48;3.95;;;;;;;7.41;100.00;102129.75;5245002;28;20024;-70
2023/05/16 05:08:12;;;;;;;18.80;4.70;;;;;;;7.40;100.00;102120.06;5245102;28;20033;-71
2023/05/16 05:10:43;;;;;;;14.27;3.80;;;;;;;7.49;100.00;102126.53;5244866;28;20037;-70
2023/05/16 05:13:13;;;;;;;18.02;4.07;;;;;;;7.57;100.00;102139.28;5245011;28;20103;-71
2023/05/16 05:15:44;;;;;;;22.33;4.05;;;;;;;7.63;100.00;102134.38;5232274;28;20490;-70
2023/05/16 05:18:15;;;;;;;15.30;3.38;;;;;;;7.72;100.00;102130.97;5243824;28;20020;-71
2023/05/16 05:20:45;;;;;;;19.45;3.20;;;;;;;7.78;100.00;102135.88;5244736;28;20027;-71
2023/05/16 05:23:16;;;;;;;14.13;3.28;;;;;;;7.88;100.00;102132.47;5236771;28;20433;-71
2023/05/16 05:25:46;;;;;;;16.73;3.63;;;;;;;7.97;100.00;102129.94;5238845;28;20016;-70
2023/05/16 05:28:17;;;;;;;17.73;3.10;;;;;;;8.04;100.00;102141.88;5235783;28;20036;-71
2023/05/16 05:30:48;;;;;;;17.58;2.88;;;;;;;8.10;100.00;102134.38;5239954;28;20021;-71
2023/05/16 05:33:18;;;;;;;10.18;2.95;;;;;;;8.14;100.00;102130.50;5234664;28;20025;-71
2023/05/16 05:35:52;;;;;;;15.30;2.80;;;;;;;8.19;100.00;102144.34;5232023;28;20424;-71
2023/05/16 05:38:23;;;;;;;17.40;3.03;;;;;;;8.20;100.00;102138.88;5244214;28;20024;-71
2023/05/16 05:40:53;;;;;;;11.73;2.97;;;;;;;8.29;100.00;102143.50;5237514;28;20365;-71
2023/05/16 05:43:24;;;;;;;11.95;2.92;;;;;;;8.40;100.00;102149.88;5245106;28;20529;-71
2023/05/16 05:45:55;;;;;;;20.73;2.75;;;;;;;8.51;100.00;102150.72;5236692;28;20158;-71
2023/05/16 05:48:27;;;;;;;11.73;2.75;;;;;;;8.72;100.00;102152.66;5237790;28;20032;-71
2023/05/16 05:50:58;;;;;;;17.42;3.05;;;;;;;8.97;100.00;102147.03;5244192;28;20111;-71
2023/05/16 05:53:29;;;;;;;20.17;2.85;;;;;;;9.38;100.00;102150.84;5231077;28;20096;-71
2023/05/16 05:55:59;;;;;;;9.05;2.67;;;;;;;10.12;100.00;102162.44;5244168;28;20495;-72
2023/05/16 05:58:30;;;;;;;10.32;2.40;;;;;;;11.30;100.00;102156.59;5240063;28;20029;-72
2023/05/16 06:01:01;;;;;;;12.38;2.35;;;;;;;11.95;100.00;102152.38;5223677;28;20459;-72
2023/05/16 06:03:31;;;;;;;17.55;3.03;;;;;;;12.00;100.00;102158.19;5242510;28;20028;-72
2023/05/16 06:06:03;;;;;;;12.38;2.38;;;;;;;12.72;100.00;102170.16;5243884;28;20025;-71
2023/05/16 06:08:33;;;;;;;16.50;2.50;;;;;;;13.09;100.00;102169.25;5237322;28;20108;-72
2023/05/16 06:11:04;;;;;;;14.98;2.67;;;;;;;13.50;100.00;102157.09;5237144;28;20027;-72
2023/05/16 06:13:35;;;;;;;11.27;2.10;;;;;;;13.40;100.00;102167.09;5236635;28;20025;-72
2023/05/16 06:16:05;;;;;;;17.70;2.15;;;;;;;13.57;100.00;102160.88;5237218;28;20042;-71
2023/05/16 06:18:36;;;;;;;11.80;2.10;;;;;;;14.03;100.00;102166.16;5244219;28;20028;-72
2023/05/16 06:21:06;;;;;;;16.08;3.10;;;;;;;14.19;100.00;102169.81;5236557;28;20020;-72
2023/05/16 06:23:37;;;;;;;11.10;2.35;;;;;;;14.62;100.00;102178.06;5233844;28;20427;-72
2023/05/16 06:26:07;;;;;;;12.85;2.25;;;;;;;14.72;100.00;102179.66;5239116;28;20044;-72
2023/05/16 06:28:38;;;;;;;7.40;2.10;;;;;;;15.52;100.00;102171.13;5223652;28;20033;-72
2023/05/16 06:31:09;;;;;;;13.77;2.42;;;;;;;15.22;100.00;102178.84;5223429;28;20313;-72
2023/05/16 06:33:39;;;;;;;12.35;2.30;;;;;;;15.61;100.00;102172.81;5234734;28;20024;-72
2023/05/16 06:36:10;;;;;;;13.90;2.10;;;;;;;15.93;100.00;102188.28;5237569;28;20474;-72
2023/05/16 06:38:40;;;;;;;11.65;2.20;;;;;;;15.97;100.00;102184.22;5243104;28;20024;-72
2023/05/16 06:41:11;;;;;;;8.80;1.98;;;;;;;16.30;100.00;102187.72;5239449;28;20090;-72
2023/05/16 06:43:41;;;;;;;18.38;2.80;;;;;;;15.94;100.00;102183.69;5247188;28;20028;-72
2023/05/16 06:46:12;;;;;;;7.95;1.75;;;;;;;16.26;100.00;102182.81;5239462;28;20028;-72
2023/05/16 06:48:42;;;;;;;13.45;2.38;;;;;;;16.76;100.00;102193.41;5236468;28;20020;-72
2023/05/16 06:51:13;;;;;;;13.65;2.17;;;;;;;16.45;100.00;102190.59;5245954;28;20036;-72
2023/05/16 06:53:43;;;;;;;10.95;2.40;;;;;;;16.63;100.00;102187.69;5238784;28;20029;-71
2023/05/16 06:56:14;;;;;;;13.55;1.77;;;;;;;17.24;100.00;102185.25;5246529;28;20028;-72
2023/05/16 06:58:44;;;;;;;9.57;2.70;;;;;;;17.41;100.00;102186.00;5232803;28;20055;-72
2023/05/16 07:01:15;;;;;;;10.95;2.20;;;;;;;17.32;100.00;102186.06;5246054;28;20024;-72
2023/05/16 07:03:46;;;;;;;9.52;1.52;;;;;;;16.78;100.00;102180.53;5246212;28;20044;-72
2023/05/16 07:06:16;;;;;;;11.15;2.13;;;;;;;16.64;100.00;102178.53;5245835;28;20063;-72
2023/05/16 07:08:47;;;;;;;6.97;1.50;;;;;;;16.05;100.00;102180.66;5238841;28;20474;-71
2023/05/16 07:11:17;;;;;;;12.18;2.20;;;;;;;16.05;100.00;102183.34;5226845;28;20033;-72
2023/05/16 07:13:47;;;;;;;14.10;2.33;;;;;;;16.22;100.00;102185.06;5245804;28;20029;-72
2023/05/16 07:16:18;;;;;;;9.75;1.58;;;;;;;16.08;100.00;102185.72;5245658;28;20039;-72
2023/05/16 07:18:49;;;;;;;10.07;1.50;;;;;;;16.31;100.00;102189.44;5246099;28;20077;-72
2023/05/16 07:21:19;;;;;;;9.95;1.98;;;;;;;16.26;100.00;102191.78;5240406;28;20141;-72
2023/05/16 07:23:50;;;;;;;10.55;1.60;;;;;;;17.04;100.00;102191.13;5237162;28;20428;-72
2023/05/16 07:26:22;;;;;;;9.23;1.85;;;;;;;17.24;100.00;102194.25;5245441;28;20025;-72
2023/05/16 07:28:52;;;;;;;6.07;1.60;;;;;;;16.03;100.00;102197.06;5246176;28;20390;-72
2023/05/16 07:31:23;;;;;;;8.70;1.42;;;;;;;15.15;100.00;102198.56;5246175;28;20033;-72
2023/05/16 07:33:53;;;;;;;9.85;1.30;;;;;;;14.72;100.00;102198.56;5245862;28;20453;-72
2023/05/16 07:36:24;;;;;;;10.40;1.85;;;;;;;14.13;100.00;102196.59;5244791;28;20718;-72
2023/05/16 07:38:54;;;;;;;10.77;1.52;;;;;;;13.67;100.00;102196.72;5245898;28;20024;-72
2023/05/16 07:41:25;;;;;;;8.90;1.83;;;;;;;13.53;100.00;102193.69;5237570;28;20051;-72
2023/05/16 07:43:55;;;;;;;9.55;2.28;;;;;;;13.28;100.00;102200.69;5232609;28;20024;-71
2023/05/16 07:46:26;;;;;;;8.23;1.48;;;;;;;12.98;100.00;102199.94;5234452;28;20017;-71
2023/05/16 07:48:56;;;;;;;6.85;1.67;;;;;;;12.56;100.00;102200.41;5231525;28;20016;-72
2023/05/16 07:51:27;;;;;;;7.43;1.50;;;;;;;12.34;100.00;102200.72;5245574;28;20032;-71
2023/05/16 07:53:58;;;;;;;12.80;1.85;;;;;;;12.35;100.00;102191.66;5239336;28;20021;-72
2023/05/16 07:56:28;;;;;;;5.63;1.17;;;;;;;13.00;100.00;102208.72;5245599;28;20112;-72
2023/05/16 07:58:59;;;;;;;5.28;1.33;;;;;;;14.18;100.00;102196.97;5232720;28;20123;-71
2023/05/16 08:01:30;;;;;;;7.53;1.30;;;;;;;15.54;100.00;102202.41;5244535;28;20016;-72
2023/05/16 08:04:00;;;;;;;9.05;1.85;;;;;;;16.03;100.00;102199.78;5245752;28;20027;-72
2023/05/16 08:06:31;;;;;;;9.10;1.50;;;;;;;16.63;100.00;102209.34;5244554;28;20036;-71
2023/05/16 08:09:02;;;;;;;8.02;1.35;;;;;;;17.38;100.00;102211.63;5245749;28;20017;-72
2023/05/16 08:11:32;;;;;;;9.48;1.33;;;;;;;18.10;100.00;102209.44;5241132;28;20068;-72
2023/05/16 08:14:03;;;;;;;6.82;1.75;;;;;;;18.36;100.00;102210.91;5233870;28;20032;-71
2023/05/16 08:16:33;;;;;;;5.63;1.10;;;;;;;18.17;100.00;102212.25;5226364;28;20021;-72
2023/05/16 08:19:05;;;;;;;10.07;1.65;;;;;;;17.92;100.00;102198.03;5225181;28;20025;-72
2023/05/16 08:21:36;;;;;;;10.18;1.50;;;;;;;17.56;100.00;102203.19;5233146;28;20013;-72
2023/05/16 08:24:09;;;;;;;8.57;1.30;;;;;;;18.05;100.00;102192.00;5239065;28;20028;-71
2023/05/16 08:26:40;;;;;;;6.47;1.13;;;;;;;17.71;100.00;102204.09;5243988;28;20025;-72
2023/05/16 08:29:10;;;;;;;6.82;1.15;;;;;;;17.05;100.00;102206.34;5244882;28;20023;-72
2023/05/16 08:31:41;;;;;;;6.57;1.42;;;;;;;16.83;100.00;102201.72;5233925;28;20033;-72
2023/05/16 08:34:11;;;;;;;9.00;2.22;;;;;;;15.91;100.00;102202.97;5242026;28;20029;-72
2023/05/16 08:36:42;;;;;;;7.60;1.90;;;;;;;15.57;100.00;102200.38;5243660;28;20027;-71
2023/05/16 08:39:13;;;;;;;5.95;1.90;;;;;;;15.24;100.00;102195.72;5244379;28;20020;-72
2023/05/16 08:41:43;;;;;;;14.02;1.95;;;;;;;14.34;100.00;102191.69;5223457;28;20032;-71
2023/05/16 08:44:20;;;;;;;14.52;2.00;;;;;;;13.91;100.00;102196.09;5224634;28;20040;-71
2023/05/16 08:46:51;;;;;;;11.98;2.50;;;;;;;13.57;100.00;102201.34;5224572;28;20570;-71
2023/05/16 08:49:25;;;;;;;9.30;1.92;;;;;;;14.11;100.00;102198.63;5223779;28;20111;-71
2023/05/16 08:51:58;;;;;;;4.63;1.50;;;;;;;14.41;100.00;102205.44;5224401;28;20127;-71
2023/05/16 08:54:29;;;;;;;9.20;2.10;;;;;;;14.80;100.00;102202.28;5233908;28;20021;-71
2023/05/16 08:57:01;;;;;;;13.90;1.83;;;;;;;14.57;100.00;102205.56;5226049;28;20194;-71
2023/05/16 08:59:31;;;;;;;9.30;1.40;;;;;;;14.63;100.00;102196.81;5223914;28;20048;-71
2023/05/16 09:02:04;;;;;;;10.10;1.50;;;;;;;14.18;100.00;102197.81;5236260;28;20024;-71
2023/05/16 09:04:37;;;;;;;10.38;1.80;;;;;;;14.10;100.00;102191.50;5224363;28;20100;-71
2023/05/16 09:07:07;;;;;;;10.95;2.08;;;;;;;14.55;100.00;102196.75;5223608;28;20032;-71
2023/05/16 09:09:38;;;;;;;8.50;1.60;;;;;;;15.19;100.00;102194.53;5224667;28;20036;-71
2023/05/16 09:12:09;;;;;;;13.57;1.63;;;;;;;15.92;100.00;102193.88;5223786;28;20036;-71
2023/05/16 09:14:39;;;;;;;7.95;1.88;;;;;;;16.42;100.00;102193.66;5224085;28;20032;-72
2023/05/16 09:17:10;;;;;;;5.40;1.23;;;;;;;16.60;100.00;102190.72;5222781;28;20092;-72
2023/05/16 09:19:43;;;;;;;6.95;1.35;;;;;;;16.59;100.00;102186.31;5224325;28;20100;-72
2023/05/16 09:22:14;;;;;;;5.22;1.38;;;;;;;16.16;100.00;102185.72;5243125;28;20482;-71
2023/05/16 09:24:45;;;;;;;9.00;1.73;;;;;;;16.53;100.00;102178.91;5229362;28;20056;-72
2023/05/16 09:27:15;;;;;;;7.60;1.35;;;;;;;16.81;100.00;102191.03;5242263;28;20063;-72
2023/05/16 09:29:50;;;;;;;7.10;1.98;;;;;;;16.84;100.00;102184.41;5222371;28;20079;-71
2023/05/16 09:32:20;;;;;;;4.70;1.20;;;;;;;16.07;100.00;102180.50;5235504;28;20020;-72
2023/05/16 09:34:52;;;;;;;8.88;1.65;;;;;;;15.71;100.00;102178.09;5231726;28;20033;-72
2023/05/16 09:37:23;;;;;;;9.73;1.42;;;;;;;15.77;100.00;102186.41;5242375;28;20044;-72
2023/05/16 09:39:54;;;;;;;4.97;1.08;;;;;;;15.63;100.00;102189.78;5236597;28;20128;-71
2023/05/16 09:42:25;;;;;;;8.65;1.63;;;;;;;15.31;100.00;102189.66;5229628;28;20033;-71
2023/05/16 09:44:56;;;;;;;5.63;1.50;;;;;;;15.67;100.00;102183.03;5243430;28;20070;-72
2023/05/16 09:47:27;;;;;;;7.75;1.38;;;;;;;16.24;100.00;102188.41;5242338;28;20027;-72
2023/05/16 09:49:59;;;;;;;8.43;1.70;;;;;;;15.94;100.00;102187.25;5241808;28;20121;-71
2023/05/16 09:52:30;;;;;;;8.60;1.73;;;;;;;16.13;100.00;102196.06;5235068;28;20025;-71
2023/05/16 09:55:03;;;;;;;5.95;0.93;;;;;;;16.64;100.00;102188.53;5237592;28;20024;-72
2023/05/16 09:57:53;;;;;;;9.40;1.10;;;;;;;16.65;100.00;102184.78;5232993;28;20538;-72
2023/05/16 10:00:30;;;;;;;3.88;1.25;;;;;;;16.74;100.00;102178.34;5240558;28;20031;-71
2023/05/16 10:03:02;;;;;;;5.07;1.30;;;;;;;17.20;100.00;102190.19;5229612;28;20086;-72
2023/05/16 10:05:34;;;;;;;7.72;1.52;;;;;;;17.04;100.00;102192.97;5242565;28;20032;-71
2023/05/16 10:08:05;;;;;;;7.32;1.77;;;;;;;16.35;100.00;102180.97;5242292;28;20478;-71
2023/05/16 10:10:37;;;;;;;4.03;0.90;;;;;;;15.85;100.00;102188.25;5241740;28;20035;-72
2023/05/16 10:13:10;;;;;;;6.88;1.45;;;;;;;16.30;100.00;102181.47;5242804;28;20035;-71
2023/05/16 10:15:41;;;;;;;4.93;0.98;;;;;;;16.71;100.00;102178.66;5242140;28;20021;-72
2023/05/16 10:18:13;;;;;;;5.15;1.13;;;;;;;16.90;100.00;102186.41;5242106;28;20043;-71
2023/05/16 10:20:47;;;;;;;5.65;1.10;;;;;;;17.21;100.00;102189.16;5241536;28;20021;-71
2023/05/16 10:23:20;;;;;;;8.47;1.20;;;;;;;17.95;100.00;102175.97;5229546;28;20060;-72
2023/05/16 10:25:51;;;;;;;7.70;1.95;;;;;;;18.23;100.00;102183.56;5241491;28;20040;-72
2023/05/16 10:28:23;;;;;;;5.07;1.20;;;;;;;18.19;100.00;102182.22;5243065;28;20432;-71
2023/05/16 10:30:55;;;;;;;10.50;1.60;;;;;;;17.25;100.00;102178.81;5242031;28;20056;-72
2023/05/16 10:33:25;;;;;;;6.45;1.13;;;;;;;16.27;100.00;102181.84;5242511;28;20016;-72
2023/05/16 10:35:57;;;;;;;7.18;1.08;;;;;;;15.78;100.00;102182.69;5241606;28;20029;-71
2023/05/16 10:38:28;;;;;;;5.78;0.90;;;;;;;16.00;100.00;102178.44;5230162;28;20526;-72
2023/05/16 10:41:00;;;;;;;4.63;1.13;;;;;;;16.02;100.00;102181.84;5232716;28;20020;-72
2023/05/16 10:43:32;;;;;;;4.03;1.05;;;;;;;15.72;100.00;102179.81;5243472;28;20470;-72
2023/05/16 10:46:08;;;;;;;4.05;1.35;;;;;;;15.31;100.00;102186.94;5242638;28;20033;-71
2023/05/16 10:48:40;;;;;;;6.68;1.27;;;;;;;15.30;100.00;102180.69;5243646;28;20021;-71
2023/05/16 10:51:48;;;;;;;6.88;1.35;;;;;;;15.59;100.00;102187.53;5243575;28;20029;-72
2023/05/16 10:54:23;;;;;;;7.68;1.40;;;;;;;16.19;100.00;102188.09;5237910;28;20029;-72
2023/05/16 10:56:54;;;;;;;;;;;;;;;16.45;100.00;102176.19;5243339;28;20059;-72
2023/05/16 10:59:27;;;;;;;7.45;1.27;;;;;;;16.86;100.00;102178.81;5243687;28;19962;-72
2023/05/16 11:01:57;;;;;;;6.95;1.45;;;;;;;17.31;100.00;102178.94;5229937;28;20025;-72
2023/05/16 11:04:45;;;;;;;3.88;1.25;;;;;;;17.03;100.00;102183.16;5243634;28;20028;-72
2023/05/16 11:07:18;;;;;;;6.07;1.27;;;;;;;16.67;100.00;102175.47;5233677;28;20486;-72
2023/05/16 11:10:08;;;;;;;4.68;0.88;;;;;;;16.08;100.00;102184.91;5239275;28;20507;-72
2023/05/16 11:12:51;;;;;;;6.35;1.30;;;;;;;15.84;100.00;102183.88;5230426;28;20025;-72
2023/05/16 11:15:37;;;;;;;8.90;1.67;;;;;;;16.19;100.00;102185.38;5230998;28;20047;-72
2023/05/16 11:18:13;;;;;;;8.98;1.30;;;;;;;16.77;100.00;102187.00;5238222;28;20075;-72
2023/05/16 11:20:44;;;;;;;5.65;0.90;;;;;;;17.28;100.00;102181.19;5235594;28;20464;-72
2023/05/16 11:23:16;;;;;;;5.57;1.20;;;;;;;17.68;100.00;102185.50;5230346;28;20035;-72
2023/05/16 11:25:50;;;;;;;7.82;1.73;;;;;;;17.49;100.00;102181.38;5241178;28;20036;-72
2023/05/16 11:28:22;;;;;;;6.88;1.00;;;;;;;17.58;100.00;102179.47;5231586;28;20393;-72
2023/05/16 11:30:56;;;;;;;5.50;1.20;;;;;;;18.00;100.00;102183.56;5246296;28;20099;-72
2023/05/16 11:33:30;;;;;;;5.32;1.10;;;;;;;17.96;100.00;102193.09;5246851;28;20025;-72
2023/05/16 11:36:04;;;;;;;6.15;1.30;;;;;;;17.74;100.00;102184.78;5246163;28;20024;-72
2023/05/16 11:38:34;;;;;;;6.18;1.48;;;;;;;17.64;100.00;102186.88;5234027;28;20028;-72